sensor_id;sensor_type;location;lat;lon;timestamp;P1;durP1;ratioP1;P2;durP2;ratioP2
32096;SDS011;18610;49.916;8.284;2023-08-06T00:00:21;6.38;;;3.80;;
32096;SDS011;18610;49.916;8.284;2023-08-06T00:02:49;9.05;;;3.75;;
32096;SDS011;18610;49.916;8.284;2023-08-06T00:05:16;5.50;;;4.05;;
32096;SDS011;18610;49.916;8.284;2023-08-06T00:07:47;7.70;;;4.60;;
32096;SDS011;18610;49.916;8.284;2023-08-06T00:10:14;6.53;;;4.60;;
32096;SDS011;18610;49.916;8.284;2023-08-06T00:12:41;4.70;;;3.45;;
32096;SDS011;18610;49.916;8.284;2023-08-06T00:15:08;7.80;;;3.38;;
32096;SDS011;18610;49.916;8.284;2023-08-06T00:17:35;7.05;;;3.83;;
32096;SDS011;18610;49.916;8.284;2023-08-06T00:20:02;12.23;;;4.07;;
32096;SDS011;18610;49.916;8.284;2023-08-06T00:22:31;3.78;;;3.10;;
32096;SDS011;18610;49.916;8.284;2023-08-06T00:24:59;4.45;;;3.60;;
32096;SDS011;18610;49.916;8.284;2023-08-06T00:27:26;12.50;;;4.10;;
32096;SDS011;18610;49.916;8.284;2023-08-06T00:29:52;5.40;;;3.38;;
32096;SDS011;18610;49.916;8.284;2023-08-06T00:32:19;7.13;;;3.83;;
32096;SDS011;18610;49.916;8.284;2023-08-06T00:34:46;4.93;;;3.40;;
32096;SDS011;18610;49.916;8.284;2023-08-06T00:37:14;7.10;;;3.45;;
32096;SDS011;18610;49.916;8.284;2023-08-06T00:39:41;7.93;;;3.50;;
32096;SDS011;18610;49.916;8.284;2023-08-06T00:42:09;7.68;;;3.25;;
32096;SDS011;18610;49.916;8.284;2023-08-06T00:44:36;6.18;;;3.47;;
32096;SDS011;18610;49.916;8.284;2023-08-06T00:47:03;7.03;;;3.42;;
32096;SDS011;18610;49.916;8.284;2023-08-06T00:49:31;3.63;;;3.08;;
32096;SDS011;18610;49.916;8.284;2023-08-06T00:51:57;9.45;;;3.33;;
32096;SDS011;18610;49.916;8.284;2023-08-06T00:54:25;9.00;;;4.03;;
32096;SDS011;18610;49.916;8.284;2023-08-06T00:56:53;3.50;;;3.10;;
32096;SDS011;18610;49.916;8.284;2023-08-06T00:59:21;3.83;;;2.80;;
32096;SDS011;18610;49.916;8.284;2023-08-06T01:01:48;3.92;;;3.05;;
32096;SDS011;18610;49.916;8.284;2023-08-06T01:04:15;6.13;;;3.53;;
32096;SDS011;18610;49.916;8.284;2023-08-06T01:06:43;8.55;;;3.47;;
32096;SDS011;18610;49.916;8.284;2023-08-06T01:09:18;5.10;;;2.88;;
32096;SDS011;18610;49.916;8.284;2023-08-06T01:11:59;4.35;;;2.88;;
32096;SDS011;18610;49.916;8.284;2023-08-06T01:14:35;6.22;;;3.10;;
32096;SDS011;18610;49.916;8.284;2023-08-06T01:17:08;9.20;;;2.95;;
32096;SDS011;18610;49.916;8.284;2023-08-06T01:19:36;3.30;;;2.92;;
32096;SDS011;18610;49.916;8.284;2023-08-06T01:22:04;5.88;;;3.50;;
32096;SDS011;18610;49.916;8.284;2023-08-06T01:24:31;4.95;;;3.30;;
32096;SDS011;18610;49.916;8.284;2023-08-06T01:27:00;5.30;;;3.13;;
32096;SDS011;18610;49.916;8.284;2023-08-06T01:29:34;5.30;;;3.47;;
32096;SDS011;18610;49.916;8.284;2023-08-06T01:32:05;3.72;;;3.22;;
32096;SDS011;18610;49.916;8.284;2023-08-06T01:34:34;4.43;;;3.15;;
32096;SDS011;18610;49.916;8.284;2023-08-06T01:37:04;9.38;;;3.08;;
32096;SDS011;18610;49.916;8.284;2023-08-06T01:39:32;7.15;;;3.63;;
32096;SDS011;18610;49.916;8.284;2023-08-06T01:41:59;4.82;;;3.15;;
32096;SDS011;18610;49.916;8.284;2023-08-06T01:44:26;5.53;;;3.45;;
32096;SDS011;18610;49.916;8.284;2023-08-06T01:46:53;5.78;;;3.97;;
32096;SDS011;18610;49.916;8.284;2023-08-06T01:49:19;4.50;;;3.22;;
32096;SDS011;18610;49.916;8.284;2023-08-06T01:51:46;4.57;;;2.75;;
32096;SDS011;18610;49.916;8.284;2023-08-06T01:54:14;5.20;;;2.88;;
32096;SDS011;18610;49.916;8.284;2023-08-06T01:56:41;5.32;;;2.80;;
32096;SDS011;18610;49.916;8.284;2023-08-06T01:59:07;5.55;;;2.88;;
32096;SDS011;18610;49.916;8.284;2023-08-06T02:01:34;7.05;;;2.97;;
32096;SDS011;18610;49.916;8.284;2023-08-06T02:04:00;6.63;;;3.20;;
32096;SDS011;18610;49.916;8.284;2023-08-06T02:06:27;6.80;;;3.22;;
32096;SDS011;18610;49.916;8.284;2023-08-06T02:08:54;4.88;;;3.08;;
32096;SDS011;18610;49.916;8.284;2023-08-06T02:11:22;7.47;;;2.55;;
32096;SDS011;18610;49.916;8.284;2023-08-06T02:13:48;3.58;;;2.80;;
32096;SDS011;18610;49.916;8.284;2023-08-06T02:16:15;6.68;;;3.00;;
32096;SDS011;18610;49.916;8.284;2023-08-06T02:18:44;4.72;;;3.20;;
32096;SDS011;18610;49.916;8.284;2023-08-06T02:21:11;4.18;;;2.55;;
32096;SDS011;18610;49.916;8.284;2023-08-06T02:23:38;5.72;;;3.35;;
32096;SDS011;18610;49.916;8.284;2023-08-06T02:26:04;9.68;;;2.92;;
32096;SDS011;18610;49.916;8.284;2023-08-06T02:28:32;6.03;;;3.22;;
32096;SDS011;18610;49.916;8.284;2023-08-06T02:30:59;7.18;;;3.58;;
32096;SDS011;18610;49.916;8.284;2023-08-06T02:33:26;11.15;;;3.40;;
32096;SDS011;18610;49.916;8.284;2023-08-06T02:35:58;6.22;;;3.20;;
32096;SDS011;18610;49.916;8.284;2023-08-06T02:38:25;7.45;;;3.08;;
32096;SDS011;18610;49.916;8.284;2023-08-06T02:40:52;9.15;;;3.45;;
32096;SDS011;18610;49.916;8.284;2023-08-06T02:43:18;4.65;;;3.15;;
32096;SDS011;18610;49.916;8.284;2023-08-06T02:45:46;3.00;;;2.65;;
32096;SDS011;18610;49.916;8.284;2023-08-06T02:48:13;5.22;;;2.70;;
32096;SDS011;18610;49.916;8.284;2023-08-06T02:50:40;7.40;;;3.67;;
32096;SDS011;18610;49.916;8.284;2023-08-06T02:53:08;5.18;;;2.83;;
32096;SDS011;18610;49.916;8.284;2023-08-06T02:55:35;5.72;;;3.20;;
32096;SDS011;18610;49.916;8.284;2023-08-06T02:58:02;5.57;;;2.90;;
32096;SDS011;18610;49.916;8.284;2023-08-06T03:00:29;4.30;;;2.72;;
32096;SDS011;18610;49.916;8.284;2023-08-06T03:02:57;4.85;;;3.15;;
32096;SDS011;18610;49.916;8.284;2023-08-06T03:05:23;4.88;;;3.20;;
32096;SDS011;18610;49.916;8.284;2023-08-06T03:07:50;4.60;;;3.35;;
32096;SDS011;18610;49.916;8.284;2023-08-06T03:10:17;7.97;;;3.63;;
32096;SDS011;18610;49.916;8.284;2023-08-06T03:12:45;4.60;;;3.22;;
32096;SDS011;18610;49.916;8.284;2023-08-06T03:15:11;7.05;;;3.50;;
32096;SDS011;18610;49.916;8.284;2023-08-06T03:17:38;6.60;;;2.50;;
32096;SDS011;18610;49.916;8.284;2023-08-06T03:20:07;6.22;;;3.05;;
32096;SDS011;18610;49.916;8.284;2023-08-06T03:22:34;6.80;;;3.45;;
32096;SDS011;18610;49.916;8.284;2023-08-06T03:25:00;4.80;;;3.45;;
32096;SDS011;18610;49.916;8.284;2023-08-06T03:27:27;10.73;;;3.75;;
32096;SDS011;18610;49.916;8.284;2023-08-06T03:29:54;16.75;;;3.40;;
32096;SDS011;18610;49.916;8.284;2023-08-06T03:32:20;5.68;;;3.05;;
32096;SDS011;18610;49.916;8.284;2023-08-06T03:34:47;3.55;;;3.00;;
32096;SDS011;18610;49.916;8.284;2023-08-06T03:37:15;6.60;;;3.17;;
32096;SDS011;18610;49.916;8.284;2023-08-06T03:39:45;7.25;;;3.20;;
32096;SDS011;18610;49.916;8.284;2023-08-06T03:42:11;4.50;;;3.22;;
32096;SDS011;18610;49.916;8.284;2023-08-06T03:44:38;6.82;;;3.72;;
32096;SDS011;18610;49.916;8.284;2023-08-06T03:47:05;7.75;;;3.00;;
32096;SDS011;18610;49.916;8.284;2023-08-06T03:49:32;8.73;;;3.65;;
32096;SDS011;18610;49.916;8.284;2023-08-06T03:51:59;6.15;;;2.75;;
32096;SDS011;18610;49.916;8.284;2023-08-06T03:54:27;6.63;;;2.92;;
32096;SDS011;18610;49.916;8.284;2023-08-06T03:56:55;8.15;;;3.60;;
32096;SDS011;18610;49.916;8.284;2023-08-06T03:59:21;10.00;;;3.40;;
32096;SDS011;18610;49.916;8.284;2023-08-06T04:01:48;9.45;;;2.90;;
32096;SDS011;18610;49.916;8.284;2023-08-06T04:04:15;5.32;;;2.00;;
32096;SDS011;18610;49.916;8.284;2023-08-06T04:06:41;5.80;;;1.80;;
32096;SDS011;18610;49.916;8.284;2023-08-06T04:09:08;7.28;;;1.92;;
32096;SDS011;18610;49.916;8.284;2023-08-06T04:11:36;5.13;;;1.60;;
32096;SDS011;18610;49.916;8.284;2023-08-06T04:14:03;2.30;;;1.52;;
32096;SDS011;18610;49.916;8.284;2023-08-06T04:16:30;4.53;;;1.90;;
32096;SDS011;18610;49.916;8.284;2023-08-06T04:18:56;6.50;;;1.42;;
32096;SDS011;18610;49.916;8.284;2023-08-06T04:21:23;1.52;;;1.02;;
32096;SDS011;18610;49.916;8.284;2023-08-06T04:23:50;4.95;;;1.58;;
32096;SDS011;18610;49.916;8.284;2023-08-06T04:26:17;7.18;;;1.85;;
32096;SDS011;18610;49.916;8.284;2023-08-06T04:28:45;7.05;;;1.35;;
32096;SDS011;18610;49.916;8.284;2023-08-06T04:31:11;2.42;;;1.55;;
32096;SDS011;18610;49.916;8.284;2023-08-06T04:33:38;6.15;;;2.00;;
32096;SDS011;18610;49.916;8.284;2023-08-06T04:36:05;7.20;;;1.98;;
32096;SDS011;18610;49.916;8.284;2023-08-06T04:38:32;7.72;;;1.65;;
32096;SDS011;18610;49.916;8.284;2023-08-06T04:40:58;8.30;;;1.70;;
32096;SDS011;18610;49.916;8.284;2023-08-06T04:43:25;5.93;;;1.30;;
32096;SDS011;18610;49.916;8.284;2023-08-06T04:45:53;3.53;;;1.10;;
32096;SDS011;18610;49.916;8.284;2023-08-06T04:48:21;6.90;;;1.38;;
32096;SDS011;18610;49.916;8.284;2023-08-06T04:50:48;2.90;;;1.02;;
32096;SDS011;18610;49.916;8.284;2023-08-06T04:53:16;5.50;;;1.30;;
32096;SDS011;18610;49.916;8.284;2023-08-06T04:55:43;2.97;;;1.00;;
32096;SDS011;18610;49.916;8.284;2023-08-06T04:58:10;2.25;;;1.38;;
32096;SDS011;18610;49.916;8.284;2023-08-06T05:00:37;3.08;;;1.60;;
32096;SDS011;18610;49.916;8.284;2023-08-06T05:03:05;6.97;;;1.70;;
32096;SDS011;18610;49.916;8.284;2023-08-06T05:05:32;8.95;;;1.83;;
32096;SDS011;18610;49.916;8.284;2023-08-06T05:07:59;5.88;;;2.05;;
32096;SDS011;18610;49.916;8.284;2023-08-06T05:10:25;3.95;;;1.80;;
32096;SDS011;18610;49.916;8.284;2023-08-06T05:12:52;3.90;;;1.60;;
32096;SDS011;18610;49.916;8.284;2023-08-06T05:15:19;5.50;;;1.67;;
32096;SDS011;18610;49.916;8.284;2023-08-06T05:17:45;3.28;;;1.55;;
32096;SDS011;18610;49.916;8.284;2023-08-06T05:20:13;6.13;;;2.13;;
32096;SDS011;18610;49.916;8.284;2023-08-06T05:22:40;4.05;;;1.90;;
32096;SDS011;18610;49.916;8.284;2023-08-06T05:25:07;4.82;;;1.98;;
32096;SDS011;18610;49.916;8.284;2023-08-06T05:27:34;1.67;;;1.33;;
32096;SDS011;18610;49.916;8.284;2023-08-06T05:30:01;4.47;;;1.10;;
32096;SDS011;18610;49.916;8.284;2023-08-06T05:32:27;2.75;;;1.17;;
32096;SDS011;18610;49.916;8.284;2023-08-06T05:34:54;4.95;;;1.42;;
32096;SDS011;18610;49.916;8.284;2023-08-06T05:37:22;3.00;;;1.00;;
32096;SDS011;18610;49.916;8.284;2023-08-06T05:39:51;3.45;;;0.88;;
32096;SDS011;18610;49.916;8.284;2023-08-06T05:42:17;1.75;;;0.77;;
32096;SDS011;18610;49.916;8.284;2023-08-06T05:44:44;1.50;;;0.70;;
32096;SDS011;18610;49.916;8.284;2023-08-06T05:47:11;1.60;;;0.80;;
32096;SDS011;18610;49.916;8.284;2023-08-06T05:49:38;2.22;;;0.75;;
32096;SDS011;18610;49.916;8.284;2023-08-06T05:52:05;5.40;;;1.10;;
32096;SDS011;18610;49.916;8.284;2023-08-06T05:54:34;2.40;;;0.80;;
32096;SDS011;18610;49.916;8.284;2023-08-06T05:57:01;6.20;;;1.27;;
32096;SDS011;18610;49.916;8.284;2023-08-06T05:59:28;2.58;;;0.55;;
32096;SDS011;18610;49.916;8.284;2023-08-06T06:01:55;1.60;;;0.70;;
32096;SDS011;18610;49.916;8.284;2023-08-06T06:04:21;0.98;;;0.65;;
32096;SDS011;18610;49.916;8.284;2023-08-06T06:06:48;2.22;;;0.63;;
32096;SDS011;18610;49.916;8.284;2023-08-06T06:09:15;0.70;;;0.50;;
32096;SDS011;18610;49.916;8.284;2023-08-06T06:11:43;1.75;;;0.40;;
32096;SDS011;18610;49.916;8.284;2023-08-06T06:14:09;1.55;;;0.55;;
32096;SDS011;18610;49.916;8.284;2023-08-06T06:16:36;6.78;;;0.93;;
32096;SDS011;18610;49.916;8.284;2023-08-06T06:19:03;1.50;;;0.57;;
32096;SDS011;18610;49.916;8.284;2023-08-06T06:21:29;2.75;;;0.40;;
32096;SDS011;18610;49.916;8.284;2023-08-06T06:23:56;0.65;;;0.40;;
32096;SDS011;18610;49.916;8.284;2023-08-06T06:26:23;1.45;;;0.50;;
32096;SDS011;18610;49.916;8.284;2023-08-06T06:28:51;0.88;;;0.60;;
32096;SDS011;18610;49.916;8.284;2023-08-06T06:31:17;1.70;;;0.50;;
32096;SDS011;18610;49.916;8.284;2023-08-06T06:33:44;1.20;;;0.63;;
32096;SDS011;18610;49.916;8.284;2023-08-06T06:36:11;0.50;;;0.50;;
32096;SDS011;18610;49.916;8.284;2023-08-06T06:38:37;2.95;;;0.60;;
32096;SDS011;18610;49.916;8.284;2023-08-06T06:41:04;3.40;;;0.60;;
32096;SDS011;18610;49.916;8.284;2023-08-06T06:43:31;1.70;;;0.50;;
32096;SDS011;18610;49.916;8.284;2023-08-06T06:45:59;0.75;;;0.50;;
32096;SDS011;18610;49.916;8.284;2023-08-06T06:48:26;1.98;;;0.70;;
32096;SDS011;18610;49.916;8.284;2023-08-06T06:50:54;1.00;;;0.90;;
32096;SDS011;18610;49.916;8.284;2023-08-06T06:53:20;1.10;;;0.60;;
32096;SDS011;18610;49.916;8.284;2023-08-06T06:55:52;1.10;;;0.60;;
32096;SDS011;18610;49.916;8.284;2023-08-06T06:58:18;1.50;;;0.65;;
32096;SDS011;18610;49.916;8.284;2023-08-06T07:00:45;0.80;;;0.57;;
32096;SDS011;18610;49.916;8.284;2023-08-06T07:03:13;0.70;;;0.65;;
32096;SDS011;18610;49.916;8.284;2023-08-06T07:05:40;0.68;;;0.60;;
32096;SDS011;18610;49.916;8.284;2023-08-06T07:08:07;7.22;;;0.80;;
32096;SDS011;18610;49.916;8.284;2023-08-06T07:10:34;0.82;;;0.45;;
32096;SDS011;18610;49.916;8.284;2023-08-06T07:13:01;0.75;;;0.50;;
32096;SDS011;18610;49.916;8.284;2023-08-06T07:15:27;0.50;;;0.50;;
32096;SDS011;18610;49.916;8.284;2023-08-06T07:17:54;1.48;;;0.50;;
32096;SDS011;18610;49.916;8.284;2023-08-06T07:20:22;0.98;;;0.60;;
32096;SDS011;18610;49.916;8.284;2023-08-06T07:22:49;0.40;;;0.40;;
32096;SDS011;18610;49.916;8.284;2023-08-06T07:25:16;0.52;;;0.50;;
32096;SDS011;18610;49.916;8.284;2023-08-06T07:27:43;0.50;;;0.50;;
32096;SDS011;18610;49.916;8.284;2023-08-06T07:30:09;0.88;;;0.73;;
32096;SDS011;18610;49.916;8.284;2023-08-06T07:32:36;0.98;;;0.50;;
32096;SDS011;18610;49.916;8.284;2023-08-06T07:35:03;2.40;;;0.70;;
32096;SDS011;18610;49.916;8.284;2023-08-06T07:37:32;1.48;;;0.50;;
32096;SDS011;18610;49.916;8.284;2023-08-06T07:39:58;1.05;;;0.50;;
32096;SDS011;18610;49.916;8.284;2023-08-06T07:42:25;3.60;;;0.63;;
32096;SDS011;18610;49.916;8.284;2023-08-06T07:44:52;0.57;;;0.57;;
32096;SDS011;18610;49.916;8.284;2023-08-06T07:47:20;1.30;;;0.80;;
32096;SDS011;18610;49.916;8.284;2023-08-06T07:49:47;2.55;;;0.70;;
32096;SDS011;18610;49.916;8.284;2023-08-06T07:52:16;0.70;;;0.60;;
32096;SDS011;18610;49.916;8.284;2023-08-06T07:54:44;0.93;;;0.50;;
32096;SDS011;18610;49.916;8.284;2023-08-06T07:57:11;0.65;;;0.60;;
32096;SDS011;18610;49.916;8.284;2023-08-06T07:59:39;0.45;;;0.45;;
32096;SDS011;18610;49.916;8.284;2023-08-06T08:02:06;0.40;;;0.40;;
32096;SDS011;18610;49.916;8.284;2023-08-06T08:04:32;3.08;;;0.50;;
32096;SDS011;18610;49.916;8.284;2023-08-06T08:06:59;1.65;;;0.50;;
32096;SDS011;18610;49.916;8.284;2023-08-06T08:09:26;0.65;;;0.45;;
32096;SDS011;18610;49.916;8.284;2023-08-06T08:11:57;3.70;;;0.85;;
32096;SDS011;18610;49.916;8.284;2023-08-06T08:14:26;0.60;;;0.60;;
32096;SDS011;18610;49.916;8.284;2023-08-06T08:16:53;0.85;;;0.50;;
32096;SDS011;18610;49.916;8.284;2023-08-06T08:19:20;0.60;;;0.60;;
32096;SDS011;18610;49.916;8.284;2023-08-06T08:21:47;1.10;;;0.57;;
32096;SDS011;18610;49.916;8.284;2023-08-06T08:24:13;0.50;;;0.50;;
32096;SDS011;18610;49.916;8.284;2023-08-06T08:26:40;0.65;;;0.50;;
32096;SDS011;18610;49.916;8.284;2023-08-06T08:29:08;0.80;;;0.77;;
32096;SDS011;18610;49.916;8.284;2023-08-06T08:31:35;0.65;;;0.40;;
32096;SDS011;18610;49.916;8.284;2023-08-06T08:34:04;1.75;;;0.50;;
32096;SDS011;18610;49.916;8.284;2023-08-06T08:36:31;5.00;;;0.60;;
32096;SDS011;18610;49.916;8.284;2023-08-06T08:38:58;1.25;;;0.50;;
32096;SDS011;18610;49.916;8.284;2023-08-06T08:41:24;0.90;;;0.40;;
32096;SDS011;18610;49.916;8.284;2023-08-06T08:43:53;1.08;;;0.50;;
32096;SDS011;18610;49.916;8.284;2023-08-06T08:46:22;1.77;;;0.65;;
32096;SDS011;18610;49.916;8.284;2023-08-06T08:48:50;0.75;;;0.50;;
32096;SDS011;18610;49.916;8.284;2023-08-06T08:51:17;0.65;;;0.38;;
32096;SDS011;18610;49.916;8.284;2023-08-06T08:53:44;1.02;;;0.35;;
32096;SDS011;18610;49.916;8.284;2023-08-06T08:56:13;0.98;;;0.50;;
32096;SDS011;18610;49.916;8.284;2023-08-06T08:58:40;1.52;;;0.73;;
32096;SDS011;18610;49.916;8.284;2023-08-06T09:01:07;1.45;;;0.50;;
32096;SDS011;18610;49.916;8.284;2023-08-06T09:03:36;0.43;;;0.40;;
32096;SDS011;18610;49.916;8.284;2023-08-06T09:06:03;0.90;;;0.63;;
32096;SDS011;18610;49.916;8.284;2023-08-06T09:08:31;1.65;;;0.50;;
32096;SDS011;18610;49.916;8.284;2023-08-06T09:11:02;5.43;;;0.60;;
32096;SDS011;18610;49.916;8.284;2023-08-06T09:13:30;1.58;;;0.55;;
32096;SDS011;18610;49.916;8.284;2023-08-06T09:15:57;0.43;;;0.43;;
32096;SDS011;18610;49.916;8.284;2023-08-06T09:18:26;0.77;;;0.22;;
32096;SDS011;18610;49.916;8.284;2023-08-06T09:20:55;1.08;;;0.50;;
32096;SDS011;18610;49.916;8.284;2023-08-06T09:23:26;0.65;;;0.65;;
32096;SDS011;18610;49.916;8.284;2023-08-06T09:25:55;0.60;;;0.35;;
32096;SDS011;18610;49.916;8.284;2023-08-06T09:28:22;0.40;;;0.40;;
32096;SDS011;18610;49.916;8.284;2023-08-06T09:30:50;0.80;;;0.50;;
32096;SDS011;18610;49.916;8.284;2023-08-06T09:33:20;0.47;;;0.47;;
32096;SDS011;18610;49.916;8.284;2023-08-06T09:35:49;0.65;;;0.40;;
32096;SDS011;18610;49.916;8.284;2023-08-06T09:38:17;2.92;;;0.40;;
32096;SDS011;18610;49.916;8.284;2023-08-06T09:40:46;0.40;;;0.40;;
32096;SDS011;18610;49.916;8.284;2023-08-06T09:43:13;0.50;;;0.50;;
32096;SDS011;18610;49.916;8.284;2023-08-06T09:45:40;0.28;;;0.28;;
32096;SDS011;18610;49.916;8.284;2023-08-06T09:48:09;2.63;;;0.50;;
32096;SDS011;18610;49.916;8.284;2023-08-06T09:50:37;1.20;;;0.30;;
32096;SDS011;18610;49.916;8.284;2023-08-06T09:53:05;2.55;;;0.38;;
32096;SDS011;18610;49.916;8.284;2023-08-06T09:55:35;0.50;;;0.30;;
32096;SDS011;18610;49.916;8.284;2023-08-06T09:58:01;0.57;;;0.30;;
32096;SDS011;18610;49.916;8.284;2023-08-06T10:00:29;1.55;;;0.63;;
32096;SDS011;18610;49.916;8.284;2023-08-06T10:02:59;1.15;;;0.40;;
32096;SDS011;18610;49.916;8.284;2023-08-06T10:05:26;0.45;;;0.40;;
32096;SDS011;18610;49.916;8.284;2023-08-06T10:07:53;0.55;;;0.28;;
32096;SDS011;18610;49.916;8.284;2023-08-06T10:10:23;7.90;;;0.70;;
32096;SDS011;18610;49.916;8.284;2023-08-06T10:12:54;3.45;;;0.40;;
32096;SDS011;18610;49.916;8.284;2023-08-06T10:15:24;2.38;;;0.20;;
32096;SDS011;18610;49.916;8.284;2023-08-06T10:17:54;2.33;;;0.30;;
32096;SDS011;18610;49.916;8.284;2023-08-06T10:20:23;2.05;;;0.38;;
32096;SDS011;18610;49.916;8.284;2023-08-06T10:23:00;2.05;;;0.32;;
32096;SDS011;18610;49.916;8.284;2023-08-06T10:25:30;2.38;;;0.40;;
32096;SDS011;18610;49.916;8.284;2023-08-06T10:27:59;0.40;;;0.40;;
32096;SDS011;18610;49.916;8.284;2023-08-06T10:30:27;2.50;;;0.40;;
32096;SDS011;18610;49.916;8.284;2023-08-06T10:32:55;0.28;;;0.28;;
32096;SDS011;18610;49.916;8.284;2023-08-06T10:35:33;0.90;;;0.32;;
32096;SDS011;18610;49.916;8.284;2023-08-06T10:38:05;0.32;;;0.20;;
32096;SDS011;18610;49.916;8.284;2023-08-06T10:40:34;0.82;;;0.38;;
32096;SDS011;18610;49.916;8.284;2023-08-06T10:43:03;0.30;;;0.30;;
32096;SDS011;18610;49.916;8.284;2023-08-06T10:45:33;0.45;;;0.40;;
32096;SDS011;18610;49.916;8.284;2023-08-06T10:48:02;0.28;;;0.28;;
32096;SDS011;18610;49.916;8.284;2023-08-06T10:50:30;5.50;;;0.30;;
32096;SDS011;18610;49.916;8.284;2023-08-06T10:52:57;0.20;;;0.20;;
32096;SDS011;18610;49.916;8.284;2023-08-06T10:55:29;0.30;;;0.30;;
32096;SDS011;18610;49.916;8.284;2023-08-06T10:57:56;0.30;;;0.30;;
32096;SDS011;18610;49.916;8.284;2023-08-06T11:00:25;3.97;;;0.20;;
32096;SDS011;18610;49.916;8.284;2023-08-06T11:02:52;0.30;;;0.30;;
32096;SDS011;18610;49.916;8.284;2023-08-06T11:05:19;0.20;;;0.20;;
32096;SDS011;18610;49.916;8.284;2023-08-06T11:07:46;0.20;;;0.20;;
32096;SDS011;18610;49.916;8.284;2023-08-06T11:10:14;0.25;;;0.20;;
32096;SDS011;18610;49.916;8.284;2023-08-06T11:12:41;0.52;;;0.20;;
32096;SDS011;18610;49.916;8.284;2023-08-06T11:15:08;0.30;;;0.22;;
32096;SDS011;18610;49.916;8.284;2023-08-06T11:17:38;0.30;;;0.30;;
32096;SDS011;18610;49.916;8.284;2023-08-06T11:20:07;0.20;;;0.20;;
32096;SDS011;18610;49.916;8.284;2023-08-06T11:22:35;1.08;;;0.20;;
32096;SDS011;18610;49.916;8.284;2023-08-06T11:25:03;0.30;;;0.30;;
32096;SDS011;18610;49.916;8.284;2023-08-06T11:27:31;0.45;;;0.38;;
32096;SDS011;18610;49.916;8.284;2023-08-06T11:29:58;0.52;;;0.32;;
32096;SDS011;18610;49.916;8.284;2023-08-06T11:32:25;0.25;;;0.20;;
32096;SDS011;18610;49.916;8.284;2023-08-06T11:34:53;1.00;;;0.30;;
32096;SDS011;18610;49.916;8.284;2023-08-06T11:37:21;2.75;;;0.40;;
32096;SDS011;18610;49.916;8.284;2023-08-06T11:39:49;3.58;;;0.40;;
32096;SDS011;18610;49.916;8.284;2023-08-06T11:42:16;0.40;;;0.40;;
32096;SDS011;18610;49.916;8.284;2023-08-06T11:44:43;1.15;;;0.40;;
32096;SDS011;18610;49.916;8.284;2023-08-06T11:47:12;6.95;;;0.60;;
32096;SDS011;18610;49.916;8.284;2023-08-06T11:49:40;0.85;;;0.50;;
32096;SDS011;18610;49.916;8.284;2023-08-06T11:52:13;3.53;;;0.68;;
32096;SDS011;18610;49.916;8.284;2023-08-06T11:54:41;0.50;;;0.50;;
32096;SDS011;18610;49.916;8.284;2023-08-06T11:57:08;0.40;;;0.40;;
32096;SDS011;18610;49.916;8.284;2023-08-06T11:59:36;3.80;;;0.65;;
32096;SDS011;18610;49.916;8.284;2023-08-06T12:02:03;1.20;;;0.60;;
32096;SDS011;18610;49.916;8.284;2023-08-06T12:04:31;0.80;;;0.52;;
32096;SDS011;18610;49.916;8.284;2023-08-06T12:07:04;0.60;;;0.60;;
32096;SDS011;18610;49.916;8.284;2023-08-06T12:09:34;4.47;;;1.67;;
32096;SDS011;18610;49.916;8.284;2023-08-06T12:12:01;0.50;;;0.50;;
32096;SDS011;18610;49.916;8.284;2023-08-06T12:14:28;1.38;;;0.80;;
32096;SDS011;18610;49.916;8.284;2023-08-06T12:16:55;0.73;;;0.70;;
32096;SDS011;18610;49.916;8.284;2023-08-06T12:19:21;0.60;;;0.55;;
32096;SDS011;18610;49.916;8.284;2023-08-06T12:21:48;0.82;;;0.40;;
32096;SDS011;18610;49.916;8.284;2023-08-06T12:24:15;0.55;;;0.55;;
32096;SDS011;18610;49.916;8.284;2023-08-06T12:26:43;2.53;;;0.77;;
32096;SDS011;18610;49.916;8.284;2023-08-06T12:29:09;2.20;;;0.88;;
32096;SDS011;18610;49.916;8.284;2023-08-06T12:31:36;1.02;;;0.80;;
32096;SDS011;18610;49.916;8.284;2023-08-06T12:34:03;1.88;;;0.90;;
32096;SDS011;18610;49.916;8.284;2023-08-06T12:36:29;1.55;;;0.70;;
32096;SDS011;18610;49.916;8.284;2023-08-06T12:38:56;3.45;;;0.73;;
32096;SDS011;18610;49.916;8.284;2023-08-06T12:41:22;1.45;;;0.60;;
32096;SDS011;18610;49.916;8.284;2023-08-06T12:43:51;1.83;;;0.90;;
32096;SDS011;18610;49.916;8.284;2023-08-06T12:46:17;0.85;;;0.70;;
32096;SDS011;18610;49.916;8.284;2023-08-06T12:48:44;7.25;;;0.73;;
32096;SDS011;18610;49.916;8.284;2023-08-06T12:51:10;1.35;;;1.25;;
32096;SDS011;18610;49.916;8.284;2023-08-06T12:53:37;1.65;;;0.80;;
32096;SDS011;18610;49.916;8.284;2023-08-06T12:56:04;2.75;;;0.85;;
32096;SDS011;18610;49.916;8.284;2023-08-06T12:58:30;0.57;;;0.57;;
32096;SDS011;18610;49.916;8.284;2023-08-06T13:00:58;3.72;;;0.82;;
32096;SDS011;18610;49.916;8.284;2023-08-06T13:03:25;4.30;;;0.80;;
32096;SDS011;18610;49.916;8.284;2023-08-06T13:05:52;2.33;;;0.82;;
32096;SDS011;18610;49.916;8.284;2023-08-06T13:08:19;4.57;;;0.68;;
32096;SDS011;18610;49.916;8.284;2023-08-06T13:10:46;2.63;;;0.98;;
32096;SDS011;18610;49.916;8.284;2023-08-06T13:13:12;2.63;;;0.80;;
32096;SDS011;18610;49.916;8.284;2023-08-06T13:15:39;2.67;;;1.02;;
32096;SDS011;18610;49.916;8.284;2023-08-06T13:18:07;0.63;;;0.52;;
32096;SDS011;18610;49.916;8.284;2023-08-06T13:20:34;2.67;;;0.90;;
32096;SDS011;18610;49.916;8.284;2023-08-06T13:23:01;0.68;;;0.60;;
32096;SDS011;18610;49.916;8.284;2023-08-06T13:25:27;1.70;;;0.55;;
32096;SDS011;18610;49.916;8.284;2023-08-06T13:27:54;2.03;;;0.60;;
32096;SDS011;18610;49.916;8.284;2023-08-06T13:30:21;3.30;;;0.30;;
32096;SDS011;18610;49.916;8.284;2023-08-06T13:32:48;0.95;;;0.77;;
32096;SDS011;18610;49.916;8.284;2023-08-06T13:35:18;2.92;;;0.60;;
32096;SDS011;18610;49.916;8.284;2023-08-06T13:37:45;0.60;;;0.47;;
32096;SDS011;18610;49.916;8.284;2023-08-06T13:40:13;1.95;;;0.70;;
32096;SDS011;18610;49.916;8.284;2023-08-06T13:42:40;8.35;;;0.98;;
32096;SDS011;18610;49.916;8.284;2023-08-06T13:45:06;2.58;;;0.73;;
32096;SDS011;18610;49.916;8.284;2023-08-06T13:47:33;2.22;;;0.90;;
32096;SDS011;18610;49.916;8.284;2023-08-06T13:50:00;1.00;;;0.50;;
32096;SDS011;18610;49.916;8.284;2023-08-06T13:52:29;0.75;;;0.47;;
32096;SDS011;18610;49.916;8.284;2023-08-06T13:54:57;0.57;;;0.40;;
32096;SDS011;18610;49.916;8.284;2023-08-06T13:57:23;2.05;;;0.57;;
32096;SDS011;18610;49.916;8.284;2023-08-06T13:59:50;0.68;;;0.55;;
32096;SDS011;18610;49.916;8.284;2023-08-06T14:02:17;6.82;;;0.98;;
32096;SDS011;18610;49.916;8.284;2023-08-06T14:04:43;3.30;;;0.73;;
32096;SDS011;18610;49.916;8.284;2023-08-06T14:07:10;1.88;;;0.70;;
32096;SDS011;18610;49.916;8.284;2023-08-06T14:09:38;4.93;;;0.50;;
32096;SDS011;18610;49.916;8.284;2023-08-06T14:12:05;1.55;;;0.70;;
32096;SDS011;18610;49.916;8.284;2023-08-06T14:14:32;4.88;;;0.60;;
32096;SDS011;18610;49.916;8.284;2023-08-06T14:16:59;1.77;;;0.65;;
32096;SDS011;18610;49.916;8.284;2023-08-06T14:19:25;2.45;;;0.60;;
32096;SDS011;18610;49.916;8.284;2023-08-06T14:21:52;0.60;;;0.43;;
32096;SDS011;18610;49.916;8.284;2023-08-06T14:24:20;0.95;;;0.50;;
32096;SDS011;18610;49.916;8.284;2023-08-06T14:26:48;2.58;;;0.80;;
32096;SDS011;18610;49.916;8.284;2023-08-06T14:29:15;1.90;;;0.70;;
32096;SDS011;18610;49.916;8.284;2023-08-06T14:31:41;1.90;;;0.47;;
32096;SDS011;18610;49.916;8.284;2023-08-06T14:34:08;1.95;;;0.43;;
32096;SDS011;18610;49.916;8.284;2023-08-06T14:36:35;0.57;;;0.50;;
32096;SDS011;18610;49.916;8.284;2023-08-06T14:39:02;0.63;;;0.40;;
32096;SDS011;18610;49.916;8.284;2023-08-06T14:41:29;1.65;;;0.30;;
32096;SDS011;18610;49.916;8.284;2023-08-06T14:43:57;0.45;;;0.35;;
32096;SDS011;18610;49.916;8.284;2023-08-06T14:46:23;0.73;;;0.43;;
32096;SDS011;18610;49.916;8.284;2023-08-06T14:48:51;0.40;;;0.40;;